createdAt,value
2024-01-09T00:00:01.429Z,-2.75
2024-01-09T00:02:27.985Z,-2.81
2024-01-09T00:04:54.632Z,-2.81
2024-01-09T00:07:21.219Z,-2.81
2024-01-09T00:09:48.941Z,-2.81
2024-01-09T00:12:15.541Z,-2.75
2024-01-09T00:14:42.208Z,-2.75
2024-01-09T00:17:08.837Z,-2.81
2024-01-09T00:19:36.052Z,-2.81
2024-01-09T00:22:03.998Z,-2.81
2024-01-09T00:24:30.741Z,-2.81
2024-01-09T00:26:57.420Z,-2.81
2024-01-09T00:29:24.165Z,-2.88
2024-01-09T00:31:50.865Z,-2.88
2024-01-09T00:34:17.578Z,-2.88
2024-01-09T00:36:45.101Z,-2.88
2024-01-09T00:39:12.501Z,-3.00
2024-01-09T00:41:39.329Z,-3.06
2024-01-09T00:44:06.346Z,-2.94
2024-01-09T00:46:33.043Z,-3.06
2024-01-09T00:48:59.814Z,-3.06
2024-01-09T00:51:27.112Z,-3.00
2024-01-09T00:53:55.732Z,-3.00
2024-01-09T00:56:22.851Z,-3.00
2024-01-09T00:58:49.573Z,-3.06
2024-01-09T01:01:16.531Z,-3.06
2024-01-09T01:03:43.788Z,-3.13
2024-01-09T01:06:10.691Z,-3.13
2024-01-09T01:08:38.822Z,-3.06
2024-01-09T01:11:07.362Z,-3.06
2024-01-09T01:13:34.116Z,-3.13
2024-01-09T01:16:01.156Z,-3.13
2024-01-09T01:18:27.853Z,-3.06
2024-01-09T01:20:54.551Z,-3.13
2024-01-09T01:23:22.353Z,-3.19
2024-01-09T01:25:48.968Z,-3.19
2024-01-09T01:28:15.568Z,-3.13
2024-01-09T01:30:42.170Z,-3.25
2024-01-09T01:33:08.985Z,-3.25
2024-01-09T01:35:35.706Z,-3.19
2024-01-09T01:38:02.355Z,-3.25
2024-01-09T01:40:29.193Z,-3.19
2024-01-09T01:42:59.098Z,-3.25
2024-01-09T01:45:26.201Z,-3.31
2024-01-09T01:47:53.442Z,-3.31
2024-01-09T01:50:20.522Z,-3.31
2024-01-09T01:52:47.898Z,-3.31
2024-01-09T01:55:16.056Z,-3.31
2024-01-09T01:57:44.229Z,-3.31
2024-01-09T02:00:11.680Z,-3.31
2024-01-09T02:02:38.885Z,-3.31
2024-01-09T02:05:07.988Z,-3.31
2024-01-09T02:07:36.042Z,-3.31
2024-01-09T02:10:03.976Z,-3.38
2024-01-09T02:12:30.862Z,-3.38
2024-01-09T02:14:57.704Z,-3.44
2024-01-09T02:17:24.573Z,-3.44
2024-01-09T02:19:51.343Z,-3.44
2024-01-09T02:22:18.005Z,-3.38
2024-01-09T02:24:44.629Z,-3.38
2024-01-09T02:27:27.006Z,-3.44
2024-01-09T02:29:54.215Z,-3.44
2024-01-09T02:32:22.374Z,-3.50
2024-01-09T02:34:50.076Z,-3.50
2024-01-09T02:37:16.721Z,-3.44
2024-01-09T02:39:43.320Z,-3.44
2024-01-09T02:42:09.948Z,-3.44
2024-01-09T02:44:36.728Z,-3.50
2024-01-09T02:47:03.480Z,-3.50
2024-01-09T02:49:30.137Z,-3.50
2024-01-09T02:51:57.402Z,-3.44
2024-01-09T02:54:24.474Z,-3.50
2024-01-09T02:56:51.517Z,-3.50
2024-01-09T02:59:18.295Z,-3.44
2024-01-09T03:01:44.951Z,-3.50
2024-01-09T03:04:11.542Z,-3.50
2024-01-09T03:06:38.286Z,-3.63
2024-01-09T03:09:04.943Z,-3.56
2024-01-09T03:11:31.533Z,-3.56
2024-01-09T03:13:58.521Z,-3.56
2024-01-09T03:16:25.107Z,-3.63
2024-01-09T03:18:51.742Z,-3.63
2024-01-09T03:21:18.438Z,-3.63
2024-01-09T03:23:45.008Z,-3.69
2024-01-09T03:26:11.654Z,-3.56
2024-01-09T03:28:38.977Z,-3.63
2024-01-09T03:31:05.582Z,-3.63
2024-01-09T03:33:32.936Z,-3.69
2024-01-09T03:36:05.115Z,-3.63
2024-01-09T03:38:31.707Z,-3.69
2024-01-09T03:40:58.276Z,-3.63
2024-01-09T03:43:24.982Z,-3.69
2024-01-09T03:45:53.305Z,-3.69
2024-01-09T03:48:19.956Z,-3.63
2024-01-09T03:50:46.639Z,-3.69
2024-01-09T03:53:13.322Z,-3.69
2024-01-09T03:55:40.003Z,-3.69
2024-01-09T03:58:06.681Z,-3.81
2024-01-09T04:00:33.354Z,-3.81
2024-01-09T04:03:01.117Z,-3.88
2024-01-09T04:05:27.813Z,-3.81
2024-01-09T04:07:54.498Z,-3.75
2024-01-09T04:10:21.105Z,-3.81
2024-01-09T04:12:47.741Z,-3.81
2024-01-09T04:15:14.332Z,-3.88
2024-01-09T04:17:40.963Z,-3.88
2024-01-09T04:20:09.579Z,-3.88
2024-01-09T04:22:36.273Z,-3.94
2024-01-09T04:25:02.878Z,-3.94
2024-01-09T04:27:29.521Z,-4.00
2024-01-09T04:29:56.171Z,-4.00
2024-01-09T04:32:22.856Z,-3.94
2024-01-09T04:34:49.550Z,-3.94
2024-01-09T04:37:16.172Z,-4.06
2024-01-09T04:39:42.835Z,-4.06
2024-01-09T04:42:09.476Z,-4.06
2024-01-09T04:44:36.183Z,-4.06
2024-01-09T04:47:02.943Z,-4.06
2024-01-09T04:49:29.717Z,-4.00
2024-01-09T04:51:56.523Z,-4.13
2024-01-09T04:54:23.151Z,-4.06
2024-01-09T04:56:50.080Z,-4.00
2024-01-09T04:59:16.914Z,-4.13
2024-01-09T05:01:44.206Z,-4.13
2024-01-09T05:04:10.923Z,-4.13
2024-01-09T05:06:37.676Z,-4.19
2024-01-09T05:09:04.475Z,-4.19
2024-01-09T05:11:31.075Z,-4.19
2024-01-09T05:13:58.465Z,-4.19
2024-01-09T05:16:28.692Z,-4.31
2024-01-09T05:18:55.959Z,-4.25
2024-01-09T05:21:22.986Z,-4.13
2024-01-09T05:23:49.645Z,-4.25
2024-01-09T05:26:17.972Z,-4.25
2024-01-09T05:28:45.246Z,-4.31
2024-01-09T05:31:11.858Z,-4.25
2024-01-09T05:33:38.656Z,-4.31
2024-01-09T05:36:06.190Z,-4.38
2024-01-09T05:38:32.873Z,-4.38
2024-01-09T05:40:59.492Z,-4.31
2024-01-09T05:43:26.046Z,-4.31
2024-01-09T05:45:52.654Z,-4.38
2024-01-09T05:48:19.371Z,-4.44
2024-01-09T05:50:46.082Z,-4.44
2024-01-09T05:53:12.741Z,-4.44
2024-01-09T05:55:39.346Z,-4.44
2024-01-09T05:58:05.955Z,-4.44
2024-01-09T06:00:34.190Z,-4.50
2024-01-09T06:03:00.935Z,-4.50
2024-01-09T06:05:27.855Z,-4.50
2024-01-09T06:07:54.552Z,-4.50
2024-01-09T06:10:21.150Z,-4.50
2024-01-09T06:12:47.782Z,-4.50
2024-01-09T06:15:14.429Z,-4.50
2024-01-09T06:17:41.277Z,-4.50
2024-01-09T06:20:08.278Z,-4.69
2024-01-09T06:22:34.862Z,-4.69
2024-01-09T06:25:01.473Z,-4.63
2024-01-09T06:27:28.053Z,-4.69
2024-01-09T06:29:55.000Z,-4.75
2024-01-09T06:32:22.557Z,-4.63
2024-01-09T06:34:49.236Z,-4.75
2024-01-09T06:37:15.851Z,-4.75
2024-01-09T06:39:42.872Z,-4.69
2024-01-09T06:42:09.470Z,-4.81
2024-01-09T06:44:36.080Z,-4.81
2024-01-09T06:47:03.062Z,-4.69
2024-01-09T06:49:29.633Z,-4.69
2024-01-09T06:51:56.208Z,-4.88
2024-01-09T06:54:22.836Z,-4.88
2024-01-09T06:56:49.496Z,-4.88
2024-01-09T06:59:16.824Z,-4.81
2024-01-09T07:01:43.596Z,-4.75
2024-01-09T07:04:10.307Z,-4.75
2024-01-09T07:06:37.238Z,-4.81
2024-01-09T07:09:04.540Z,-4.81
2024-01-09T07:11:31.319Z,-4.81
2024-01-09T07:13:58.412Z,-4.88
2024-01-09T07:16:25.077Z,-4.81
2024-01-09T07:18:51.888Z,-4.81
2024-01-09T07:21:18.661Z,-4.94
2024-01-09T07:23:45.784Z,-4.88
2024-01-09T07:26:12.521Z,-4.94
2024-01-09T07:28:39.454Z,-4.88
2024-01-09T07:31:06.158Z,-4.88
2024-01-09T07:33:32.946Z,-4.81
2024-01-09T07:35:59.731Z,-4.88
2024-01-09T07:38:26.761Z,-4.81
2024-01-09T07:40:56.600Z,-4.94
2024-01-09T07:43:25.377Z,-4.88
2024-01-09T07:45:52.152Z,-4.94
2024-01-09T07:48:18.936Z,-4.81
2024-01-09T07:50:45.709Z,-4.88
2024-01-09T07:53:12.312Z,-4.94
2024-01-09T07:55:38.948Z,-4.88
2024-01-09T07:58:07.126Z,-4.88
2024-01-09T08:00:34.733Z,-4.94
2024-01-09T08:03:01.794Z,-4.94
2024-01-09T08:05:28.548Z,-4.94
2024-01-09T08:07:55.295Z,-4.81
2024-01-09T08:10:21.952Z,-4.81
2024-01-09T08:12:48.554Z,-4.75
2024-01-09T08:15:15.175Z,-4.69
2024-01-09T08:17:41.794Z,-4.75
2024-01-09T08:20:08.657Z,-4.75
2024-01-09T08:22:35.296Z,-4.44
2024-01-09T08:25:01.981Z,-4.38
2024-01-09T08:27:29.130Z,-4.38
2024-01-09T08:29:55.865Z,-4.31
2024-01-09T08:32:23.990Z,-4.25
2024-01-09T08:34:51.126Z,-4.13
2024-01-09T08:37:17.887Z,-4.00
2024-01-09T08:39:44.554Z,-4.00
2024-01-09T08:42:11.193Z,-3.94
2024-01-09T08:44:37.885Z,-4.00
2024-01-09T08:47:04.626Z,-3.75
2024-01-09T08:49:31.265Z,-3.50
2024-01-09T08:51:57.950Z,-3.56
2024-01-09T08:54:24.684Z,-3.44
2024-01-09T08:56:51.393Z,-3.13
2024-01-09T08:59:18.379Z,-3.38
2024-01-09T09:01:44.962Z,-3.25
2024-01-09T09:04:11.628Z,-3.38
2024-01-09T09:06:38.618Z,-3.25
2024-01-09T09:09:05.900Z,-3.00
2024-01-09T09:11:33.964Z,-2.94
2024-01-09T09:14:00.652Z,-3.00
2024-01-09T09:16:30.181Z,-3.06
2024-01-09T09:18:57.415Z,-2.94
2024-01-09T09:21:24.028Z,-2.94
2024-01-09T09:23:50.699Z,-2.63
2024-01-09T09:26:17.548Z,-2.75
2024-01-09T09:28:59.608Z,-2.44
2024-01-09T09:31:31.077Z,-2.56
2024-01-09T09:33:58.040Z,-2.25
2024-01-09T09:36:25.704Z,-2.31
2024-01-09T09:38:55.109Z,-2.31
2024-01-09T09:41:22.387Z,-2.25
2024-01-09T09:43:57.458Z,-2.25
2024-01-09T09:46:30.062Z,-2.19
2024-01-09T09:48:57.575Z,-2.00
2024-01-09T09:51:27.245Z,-1.81
2024-01-09T09:53:56.209Z,-1.75
2024-01-09T09:56:23.257Z,-1.88
2024-01-09T09:58:50.083Z,-1.81
2024-01-09T10:01:18.861Z,-1.50
2024-01-09T10:03:58.193Z,-1.50
2024-01-09T10:06:25.907Z,-1.44
2024-01-09T10:08:55.403Z,-1.69
2024-01-09T10:11:22.314Z,-1.38
2024-01-09T10:13:49.265Z,-1.25
2024-01-09T10:16:15.964Z,-1.25
2024-01-09T10:18:42.867Z,-1.00
2024-01-09T10:21:09.647Z,-0.94
2024-01-09T10:23:41.106Z,-0.69
2024-01-09T10:26:12.672Z,-1.25
2024-01-09T10:28:40.007Z,-1.13
2024-01-09T10:31:08.302Z,-1.06
2024-01-09T10:33:42.100Z,-1.25
2024-01-09T10:36:10.206Z,-1.25
2024-01-09T10:38:36.878Z,-1.19
2024-01-09T10:41:20.116Z,-1.13
2024-01-09T10:43:48.497Z,-1.25
2024-01-09T10:46:15.274Z,-1.19
2024-01-09T10:48:43.548Z,-1.13
2024-01-09T10:51:13.244Z,-1.13
2024-01-09T10:53:43.715Z,-0.75
2024-01-09T10:56:10.740Z,-0.56
2024-01-09T10:58:38.204Z,-0.75
2024-01-09T11:01:05.020Z,-0.44
2024-01-09T11:03:31.930Z,-0.50
2024-01-09T11:06:00.694Z,-0.19
2024-01-09T11:08:28.961Z,-0.13
2024-01-09T11:10:57.040Z,-0.25
2024-01-09T11:13:24.883Z,0.06
2024-01-09T11:15:55.438Z,0.19
2024-01-09T11:18:24.119Z,0.19
2024-01-09T11:21:04.030Z,0.00
2024-01-09T11:23:53.064Z,0.56
2024-01-09T11:26:20.840Z,0.56
2024-01-09T11:28:47.496Z,1.00
2024-01-09T11:31:18.489Z,1.13
2024-01-09T11:33:45.466Z,1.00
2024-01-09T11:36:12.967Z,0.81
2024-01-09T11:38:40.209Z,0.94
2024-01-09T11:41:10.138Z,1.00
2024-01-09T11:44:03.107Z,1.31
2024-01-09T11:46:33.355Z,1.38
2024-01-09T11:49:01.634Z,1.75
2024-01-09T11:51:32.312Z,2.06
2024-01-09T11:54:01.778Z,1.94
2024-01-09T11:56:29.197Z,2.06
2024-01-09T11:58:56.156Z,2.06
2024-01-09T12:01:23.645Z,1.63
2024-01-09T12:03:58.198Z,1.69
2024-01-09T12:06:27.249Z,1.56
2024-01-09T12:08:54.730Z,1.63
2024-01-09T12:11:21.769Z,2.00
2024-01-09T12:13:50.041Z,1.88
2024-01-09T12:16:18.281Z,2.38
2024-01-09T12:18:48.831Z,2.19
2024-01-09T12:21:16.641Z,1.88
2024-01-09T12:24:01.927Z,1.88
2024-01-09T12:26:31.117Z,2.13
2024-01-09T12:28:59.033Z,1.81
2024-01-09T12:31:26.648Z,2.13
2024-01-09T12:33:56.904Z,1.94
2024-01-09T12:36:29.011Z,2.19
2024-01-09T12:38:57.760Z,2.00
2024-01-09T12:41:25.008Z,1.94
2024-01-09T12:43:54.601Z,2.00
2024-01-09T12:46:24.082Z,2.38
2024-01-09T12:48:51.090Z,2.25
2024-01-09T12:51:17.992Z,2.63
2024-01-09T12:53:44.900Z,2.13
2024-01-09T12:56:15.880Z,2.00
2024-01-09T12:58:45.521Z,1.81
2024-01-09T13:01:16.282Z,2.44
2024-01-09T13:03:44.954Z,2.38
2024-01-09T13:06:13.524Z,2.88
2024-01-09T13:08:41.212Z,2.88
2024-01-09T13:11:10.771Z,2.75
2024-01-09T13:13:38.590Z,2.50
2024-01-09T13:16:07.059Z,2.50
2024-01-09T13:18:34.986Z,2.75
2024-01-09T13:21:03.707Z,2.50
2024-01-09T13:26:02.769Z,2.56
2024-01-09T13:28:30.081Z,2.38
2024-01-09T13:30:59.064Z,2.38
2024-01-09T13:33:26.765Z,2.81
2024-01-09T13:35:53.569Z,2.56
2024-01-09T13:38:20.248Z,2.06
2024-01-09T13:40:47.450Z,2.00
2024-01-09T13:43:14.821Z,2.44
2024-01-09T13:45:42.056Z,2.38
2024-01-09T13:48:08.777Z,2.63
2024-01-09T13:53:05.135Z,2.69
2024-01-09T13:55:32.684Z,3.00
2024-01-09T13:57:59.295Z,2.81
2024-01-09T14:00:25.993Z,2.19
2024-01-09T14:02:54.890Z,2.31
2024-01-09T14:05:22.178Z,2.44
2024-01-09T14:07:49.827Z,2.56
2024-01-09T14:10:16.546Z,2.31
2024-01-09T14:12:43.247Z,2.44
2024-01-09T14:15:10.061Z,2.50
2024-01-09T14:17:37.642Z,2.25
2024-01-09T14:20:04.623Z,2.06
2024-01-09T14:22:31.350Z,2.31
2024-01-09T14:24:57.917Z,2.44
2024-01-09T14:27:24.575Z,1.94
2024-01-09T14:29:51.951Z,1.94
2024-01-09T14:32:19.437Z,1.75
2024-01-09T14:34:46.675Z,1.56
2024-01-09T14:37:15.351Z,1.19
2024-01-09T14:39:42.249Z,0.94
2024-01-09T14:42:08.917Z,1.06
2024-01-09T14:44:35.586Z,1.13
2024-01-09T14:47:02.768Z,1.19
2024-01-09T14:49:29.895Z,1.31
2024-01-09T14:51:56.910Z,1.38
2024-01-09T14:54:26.537Z,1.50
2024-01-09T14:56:54.442Z,1.19
2024-01-09T14:59:21.421Z,1.38
2024-01-09T15:01:52.731Z,1.75
2024-01-09T15:04:20.410Z,2.00
2024-01-09T15:06:48.836Z,1.75
2024-01-09T15:09:15.723Z,1.56
2024-01-09T15:11:42.410Z,1.63
2024-01-09T15:14:09.196Z,1.88
2024-01-09T15:16:36.003Z,0.69
2024-01-09T15:19:03.746Z,0.13
2024-01-09T15:21:33.938Z,-0.25
2024-01-09T15:24:00.588Z,-0.25
2024-01-09T15:26:27.232Z,-0.38
2024-01-09T15:28:53.964Z,-0.38
2024-01-09T15:31:21.644Z,-0.56
2024-01-09T15:33:48.921Z,-0.56
2024-01-09T15:36:17.105Z,-0.56
2024-01-09T15:38:44.794Z,-0.69
2024-01-09T15:41:12.498Z,-0.50
2024-01-09T15:43:39.375Z,-0.63
2024-01-09T15:46:07.916Z,-0.81
2024-01-09T15:48:35.566Z,-0.94
2024-01-09T15:51:06.893Z,-1.00
2024-01-09T15:53:34.441Z,-0.94
2024-01-09T15:56:01.088Z,-0.94
2024-01-09T15:58:27.872Z,-1.00
2024-01-09T16:00:54.547Z,-1.06
2024-01-09T16:03:21.246Z,-1.06
2024-01-09T16:05:48.012Z,-1.13
2024-01-09T16:08:15.238Z,-1.19
2024-01-09T16:10:43.477Z,-1.25
2024-01-09T16:13:10.274Z,-1.25
2024-01-09T16:15:40.792Z,-1.31
2024-01-09T16:18:07.541Z,-1.31
2024-01-09T16:20:34.521Z,-1.31
2024-01-09T16:23:01.450Z,-1.38
2024-01-09T16:25:28.214Z,-1.50
2024-01-09T16:27:56.177Z,-1.50
2024-01-09T16:30:23.065Z,-1.44
2024-01-09T16:32:49.937Z,-1.38
2024-01-09T16:35:16.799Z,-1.44
2024-01-09T16:37:43.520Z,-1.50
2024-01-09T16:40:12.131Z,-1.50
2024-01-09T16:42:39.174Z,-1.63
2024-01-09T16:45:06.312Z,-1.63
2024-01-09T16:47:33.091Z,-1.63
2024-01-09T16:49:59.876Z,-1.63
2024-01-09T16:52:26.724Z,-1.69
2024-01-09T16:54:54.585Z,-1.75
2024-01-09T16:57:21.222Z,-1.81
2024-01-09T16:59:47.863Z,-1.63
2024-01-09T17:02:14.738Z,-1.69
2024-01-09T17:04:42.268Z,-1.63
2024-01-09T17:07:09.047Z,-1.75
2024-01-09T17:09:36.231Z,-1.75
2024-01-09T17:12:02.877Z,-1.75
2024-01-09T17:14:29.550Z,-1.88
2024-01-09T17:16:57.395Z,-1.88
2024-01-09T17:19:29.053Z,-1.81
2024-01-09T17:21:58.715Z,-1.81
2024-01-09T17:24:25.356Z,-1.88
2024-01-09T17:26:52.052Z,-1.94
2024-01-09T17:29:18.745Z,-1.88
2024-01-09T17:31:45.716Z,-1.94
2024-01-09T17:34:12.535Z,-1.88
2024-01-09T17:36:39.488Z,-1.94
2024-01-09T17:39:06.470Z,-1.94
2024-01-09T17:41:33.368Z,-1.88
2024-01-09T17:44:00.056Z,-1.88
2024-01-09T17:46:27.383Z,-1.94
2024-01-09T17:48:54.132Z,-2.00
2024-01-09T17:51:20.790Z,-1.94
2024-01-09T17:53:47.459Z,-1.88
2024-01-09T17:56:15.390Z,-1.94
2024-01-09T17:58:42.227Z,-2.00
2024-01-09T18:01:09.111Z,-2.00
2024-01-09T18:03:35.868Z,-2.00
2024-01-09T18:06:02.806Z,-1.94
2024-01-09T18:08:29.551Z,-1.94
2024-01-09T18:10:56.328Z,-2.00
2024-01-09T18:13:23.823Z,-2.00
2024-01-09T18:15:50.534Z,-2.06
2024-01-09T18:18:19.438Z,-2.06
2024-01-09T18:20:47.505Z,-2.00
2024-01-09T18:23:14.827Z,-2.00
2024-01-09T18:25:41.590Z,-2.00
2024-01-09T18:28:08.340Z,-2.13
2024-01-09T18:30:35.423Z,-2.13
2024-01-09T18:33:02.353Z,-2.06
2024-01-09T18:35:29.154Z,-2.06
2024-01-09T18:37:55.977Z,-2.13
2024-01-09T18:40:22.638Z,-2.06
2024-01-09T18:42:52.539Z,-2.13
2024-01-09T18:45:19.178Z,-2.13
2024-01-09T18:47:45.787Z,-2.19
2024-01-09T18:50:12.484Z,-2.19
2024-01-09T18:52:40.584Z,-2.25
2024-01-09T18:55:08.040Z,-2.13
2024-01-09T18:57:35.724Z,-2.13
2024-01-09T19:00:06.329Z,-2.13
2024-01-09T19:02:34.162Z,-2.19
2024-01-09T19:05:00.936Z,-2.19
2024-01-09T19:07:27.782Z,-2.25
2024-01-09T19:09:54.541Z,-2.31
2024-01-09T19:12:21.240Z,-2.31
2024-01-09T19:14:47.926Z,-2.25
2024-01-09T19:17:14.755Z,-2.31
2024-01-09T19:19:46.755Z,-2.38
2024-01-09T19:22:15.025Z,-2.38
2024-01-09T19:24:42.158Z,-2.44
2024-01-09T19:27:08.968Z,-2.44
2024-01-09T19:29:35.667Z,-2.44
2024-01-09T19:32:02.518Z,-2.44
2024-01-09T19:34:29.252Z,-2.44
2024-01-09T19:36:55.931Z,-2.44
2024-01-09T19:39:22.681Z,-2.38
2024-01-09T19:41:49.294Z,-2.50
2024-01-09T19:44:16.785Z,-2.50
2024-01-09T19:46:43.598Z,-2.50
2024-01-09T19:49:11.477Z,-2.56
2024-01-09T19:51:40.492Z,-2.63
2024-01-09T19:54:10.691Z,-2.63
2024-01-09T19:56:39.337Z,-2.50
2024-01-09T19:59:06.430Z,-2.56
2024-01-09T20:01:33.834Z,-2.50
2024-01-09T20:04:00.545Z,-2.56
2024-01-09T20:06:27.307Z,-2.56
2024-01-09T20:08:54.732Z,-2.69
2024-01-09T20:11:29.757Z,-2.63
2024-01-09T20:14:00.041Z,-2.75
2024-01-09T20:16:27.801Z,-2.56
2024-01-09T20:18:54.733Z,-2.56
2024-01-09T20:21:31.768Z,-2.75
2024-01-09T20:23:59.016Z,-2.69
2024-01-09T20:26:31.254Z,-2.63
2024-01-09T20:28:58.374Z,-2.63
2024-01-09T20:31:26.348Z,-2.69
2024-01-09T20:33:53.614Z,-2.75
2024-01-09T20:36:21.215Z,-2.75
2024-01-09T20:38:48.538Z,-2.69
2024-01-09T20:41:15.313Z,-2.88
2024-01-09T20:43:41.981Z,-2.75
2024-01-09T20:46:08.752Z,-2.75
2024-01-09T20:48:36.237Z,-2.88
2024-01-09T20:51:07.840Z,-2.88
2024-01-09T20:53:35.301Z,-2.88
2024-01-09T20:56:04.083Z,-2.88
2024-01-09T20:58:31.660Z,-2.75
2024-01-09T21:00:58.489Z,-2.81
2024-01-09T21:03:27.156Z,-2.81
2024-01-09T21:05:54.416Z,-2.88
2024-01-09T21:08:21.525Z,-2.88
2024-01-09T21:10:48.312Z,-2.81
2024-01-09T21:13:15.007Z,-2.88
2024-01-09T21:15:43.574Z,-2.94
2024-01-09T21:18:12.205Z,-2.75
2024-01-09T21:20:39.395Z,-2.81
2024-01-09T21:23:06.213Z,-3.00
2024-01-09T21:25:32.847Z,-2.94
2024-01-09T21:27:59.552Z,-2.94
2024-01-09T21:30:26.586Z,-3.00
2024-01-09T21:32:54.480Z,-3.00
2024-01-09T21:35:21.098Z,-3.00
2024-01-09T21:37:48.274Z,-2.94
2024-01-09T21:40:15.384Z,-2.94
2024-01-09T21:42:43.002Z,-3.00
2024-01-09T21:45:11.160Z,-3.06
2024-01-09T21:47:41.637Z,-3.00
2024-01-09T21:50:10.275Z,-3.00
2024-01-09T21:52:38.508Z,-3.00
2024-01-09T21:55:07.752Z,-3.13
2024-01-09T21:57:34.359Z,-3.06
2024-01-09T22:00:00.997Z,-3.06
2024-01-09T22:02:27.662Z,-3.06
2024-01-09T22:04:55.067Z,-3.00
2024-01-09T22:07:21.700Z,-2.94
2024-01-09T22:09:48.320Z,-3.06
2024-01-09T22:12:14.911Z,-3.00
2024-01-09T22:14:41.604Z,-3.06
2024-01-09T22:17:08.330Z,-3.13
2024-01-09T22:19:38.585Z,-3.13
2024-01-09T22:22:05.532Z,-3.13
2024-01-09T22:24:32.153Z,-3.19
2024-01-09T22:26:58.767Z,-3.19
2024-01-09T22:29:25.379Z,-3.06
2024-01-09T22:31:52.936Z,-3.13
2024-01-09T22:34:19.761Z,-3.13
2024-01-09T22:36:46.641Z,-3.25
2024-01-09T22:39:13.301Z,-3.19
2024-01-09T22:41:39.954Z,-3.19
2024-01-09T22:44:06.958Z,-3.25
2024-01-09T22:46:33.729Z,-3.25
2024-01-09T22:49:00.993Z,-3.31
2024-01-09T22:51:27.631Z,-3.31
2024-01-09T22:53:54.184Z,-3.31
2024-01-09T22:56:20.779Z,-3.25
2024-01-09T22:58:48.023Z,-3.38
2024-01-09T23:01:14.709Z,-3.31
2024-01-09T23:03:41.788Z,-3.31
2024-01-09T23:06:08.448Z,-3.31
2024-01-09T23:08:35.111Z,-3.38
2024-01-09T23:11:01.793Z,-3.38
2024-01-09T23:13:28.447Z,-3.44
2024-01-09T23:15:55.381Z,-3.44
2024-01-09T23:18:22.103Z,-3.44
2024-01-09T23:20:48.760Z,-3.50
2024-01-09T23:23:15.723Z,-3.50
2024-01-09T23:25:43.518Z,-3.44
2024-01-09T23:28:10.176Z,-3.44
2024-01-09T23:30:36.871Z,-3.31
2024-01-09T23:33:03.722Z,-3.44
2024-01-09T23:35:31.985Z,-3.44
2024-01-09T23:37:59.499Z,-3.44
2024-01-09T23:40:31.472Z,-3.44
2024-01-09T23:42:58.234Z,-3.50
2024-01-09T23:45:24.919Z,-3.50
2024-01-09T23:47:51.622Z,-3.38
2024-01-09T23:50:19.236Z,-3.50
2024-01-09T23:52:45.898Z,-3.50
2024-01-09T23:55:12.521Z,-3.44
2024-01-09T23:57:39.101Z,-3.50
